Terminal Aerodrome Forecast
Issued by NWS

Home | Current Version | Previous Version | Graphics & Text | Print | Product List | Glossary On
Versions: 1 2 3 4 5 6 7 8 9 10 11 12 13 14 15 16 17 18 19 20 21 22 23
000
FTUS43 KICT 212333
TAFSLN
TAF
KSLN 212333Z 2200/2224 17012KT 4SM BR OVC008
      TEMPO 2201/2204 2SM -DZ BR OVC005
     FM220400 17014KT 4SM -DZ BR OVC005
     FM221300 27015KT P6SM SCT020 BKN030
     FM221700 30018G26KT P6SM SCT100=

USA.gov is the U.S. government's official web portal to all federal, state and local government web resources and services.